Time;durP1;ratioP1;P1;durP2;ratioP2;P2;SDS_P1;SDS_P2;PMS_P1;PMS_P2;Temp;Humidity;BMP_temperature;BMP_pressure;BME280_temperature;BME280_humidity;BME280_pressure;Samples;Min_cycle;Max_cycle;Signal;HPM_P1;HPM_P2
2021/01/03 00:00:15;;;;;;;40.53;30.67;;;16.30;99.90;;;;;;5042204;28;20047;-29
2021/01/03 00:02:41;;;;;;;37.72;28.33;;;16.30;99.90;;;;;;5036720;28;20422;-29
2021/01/03 00:05:07;;;;;;;38.67;30.13;;;16.30;99.90;;;;;;5043315;28;20029;-29
2021/01/03 00:07:33;;;;;;;35.75;27.05;;;16.30;99.90;;;;;;5047584;28;20083;-30
2021/01/03 00:09:59;;;;;;;40.15;29.70;;;16.30;99.90;;;;;;5043293;28;20025;-30
2021/01/03 00:12:24;;;;;;;36.22;28.13;;;16.20;99.90;;;;;;5047985;28;20049;-30
2021/01/03 00:14:51;;;;;;;36.45;26.42;;;16.20;99.90;;;;;;5043612;28;20100;-29
2021/01/03 00:17:16;;;;;;;36.97;27.75;;;16.20;99.90;;;;;;5041391;28;20041;-29
2021/01/03 00:19:42;;;;;;;32.67;25.50;;;16.20;99.90;;;;;;5043730;28;20021;-31
2021/01/03 00:22:08;;;;;;;33.95;25.58;;;16.20;99.90;;;;;;5046289;28;20030;-28
2021/01/03 00:24:34;;;;;;;34.70;25.45;;;16.10;99.90;;;;;;5047188;28;20029;-29
2021/01/03 00:26:59;;;;;;;33.92;26.50;;;16.20;99.90;;;;;;5045704;28;20045;-29
2021/01/03 00:29:25;;;;;;;32.70;25.20;;;16.20;99.90;;;;;;5043388;28;20491;-30
2021/01/03 00:31:51;;;;;;;33.13;24.73;;;16.10;99.90;;;;;;5037754;28;20113;-28
2021/01/03 00:34:18;;;;;;;34.95;25.50;;;16.10;99.90;;;;;;5044155;28;20024;-29
2021/01/03 00:36:44;;;;;;;30.10;23.67;;;16.10;99.90;;;;;;5042813;28;20147;-29
2021/01/03 00:39:10;;;;;;;33.42;25.63;;;16.10;99.90;;;;;;5045128;28;20386;-29
2021/01/03 00:41:36;;;;;;;32.05;23.55;;;16.00;99.90;;;;;;5037297;28;20479;-29
2021/01/03 00:44:04;;;;;;;28.80;20.90;;;16.00;99.90;;;;;;5044266;28;20017;-29
2021/01/03 00:46:30;;;;;;;30.27;23.60;;;16.00;99.90;;;;;;5046908;28;20377;-29
2021/01/03 00:48:55;;;;;;;30.17;22.05;;;16.00;99.90;;;;;;5046622;28;20031;-29
2021/01/03 00:51:21;;;;;;;26.48;20.88;;;16.00;99.90;;;;;;5044031;28;20025;-29
2021/01/03 00:53:47;;;;;;;30.15;21.35;;;16.00;99.90;;;;;;5039281;28;20415;-28
2021/01/03 00:56:13;;;;;;;30.75;21.92;;;16.00;99.90;;;;;;5041770;28;20025;-29
2021/01/03 00:58:39;;;;;;;30.88;21.60;;;16.00;99.90;;;;;;5048170;28;20032;-28
2021/01/03 01:01:06;;;;;;;26.35;21.13;;;16.00;99.90;;;;;;5042548;28;20100;-29
2021/01/03 01:03:32;;;;;;;26.15;20.67;;;16.00;99.90;;;;;;5036231;28;20109;-29
2021/01/03 01:05:57;;;;;;;25.67;20.25;;;16.00;99.90;;;;;;5043930;28;20104;-29
2021/01/03 01:08:24;;;;;;;25.80;19.55;;;16.00;99.90;;;;;;5051733;28;20424;-28
2021/01/03 01:10:50;;;;;;;27.55;20.23;;;15.90;99.90;;;;;;5044720;28;20033;-29
2021/01/03 01:13:17;;;;;;;29.35;20.63;;;16.00;99.90;;;;;;5039723;28;20112;-29
2021/01/03 01:15:42;;;;;;;27.60;19.83;;;15.90;99.90;;;;;;5041414;28;20020;-29
2021/01/03 01:18:08;;;;;;;23.27;17.77;;;15.90;99.90;;;;;;5047307;28;20475;-29
2021/01/03 01:20:35;;;;;;;25.75;18.88;;;15.90;99.90;;;;;;5040221;28;20022;-29
2021/01/03 01:23:02;;;;;;;21.70;17.63;;;15.90;99.90;;;;;;5049579;28;20009;-29
2021/01/03 01:25:31;;;;;;;22.13;17.73;;;15.90;99.90;;;;;;5042728;28;20057;-29
2021/01/03 01:27:57;;;;;;;24.73;18.13;;;15.90;99.90;;;;;;5046915;28;20029;-29
2021/01/03 01:30:26;;;;;;;24.23;18.25;;;15.90;99.90;;;;;;5041483;28;20030;-29
2021/01/03 01:32:52;;;;;;;24.45;17.50;;;15.80;99.90;;;;;;5042309;28;20025;-29
2021/01/03 01:35:22;;;;;;;22.15;15.73;;;15.80;99.90;;;;;;5045361;28;20479;-29
2021/01/03 01:37:48;;;;;;;24.23;16.52;;;15.80;99.90;;;;;;5038587;28;20035;-29
2021/01/03 01:40:19;;;;;;;19.67;15.43;;;15.80;99.90;;;;;;5042249;28;20036;-29
2021/01/03 01:42:45;;;;;;;19.35;15.05;;;15.80;99.90;;;;;;5035126;28;20029;-29
2021/01/03 01:45:14;;;;;;;19.58;15.23;;;15.80;99.90;;;;;;5042141;28;20025;-29
2021/01/03 01:47:44;;;;;;;16.90;14.60;;;15.80;99.90;;;;;;5044075;28;20449;-29
2021/01/03 01:50:17;;;;;;;21.20;14.45;;;15.80;99.90;;;;;;5043633;28;20017;-29
2021/01/03 01:52:49;;;;;;;20.10;14.50;;;15.70;99.90;;;;;;5043393;28;20053;-30
2021/01/03 01:55:20;;;;;;;18.58;14.48;;;15.70;99.90;;;;;;5045620;28;20044;-29
2021/01/03 01:58:19;;;;;;;18.05;13.65;;;15.70;99.90;;;;;;5049014;28;20549;-29
2021/01/03 02:00:55;;;;;;;17.20;12.48;;;15.70;99.90;;;;;;5032635;28;20045;-29
2021/01/03 02:03:36;;;;;;;15.65;12.15;;;15.70;99.90;;;;;;5038137;28;20053;-29
2021/01/03 02:06:39;;;;;;;17.40;13.38;;;15.70;99.90;;;;;;5036119;28;20017;-29
2021/01/03 02:09:15;;;;;;;16.52;12.35;;;15.70;99.90;;;;;;5039606;28;20052;-29
2021/01/03 02:11:41;;;;;;;15.88;12.13;;;15.70;99.90;;;;;;5041388;28;20394;-29
2021/01/03 02:14:09;;;;;;;15.40;11.43;;;15.70;99.90;;;;;;5042227;28;20068;-29
2021/01/03 02:16:37;;;;;;;15.60;11.13;;;15.70;99.90;;;;;;5047331;28;20028;-29
2021/01/03 02:19:18;;;;;;;12.63;9.88;;;15.70;99.90;;;;;;5041631;28;20025;-29
2021/01/03 02:21:53;;;;;;;14.90;11.48;;;15.60;99.90;;;;;;5045400;28;20704;-29
2021/01/03 02:24:23;;;;;;;15.57;10.65;;;15.60;99.90;;;;;;5043015;28;20029;-29
2021/01/03 02:27:21;;;;;;;15.20;10.80;;;15.60;99.90;;;;;;5039362;28;20048;-29
2021/01/03 02:29:50;;;;;;;12.90;9.68;;;15.60;99.90;;;;;;5032288;28;20116;-29
2021/01/03 02:32:17;;;;;;;13.82;9.10;;;15.60;99.90;;;;;;5043493;28;20495;-29
2021/01/03 02:34:47;;;;;;;12.50;9.63;;;15.60;99.90;;;;;;5041830;28;20032;-29
2021/01/03 02:37:25;;;;;;;11.35;8.82;;;15.60;99.90;;;;;;5042144;28;20033;-29
2021/01/03 02:39:54;;;;;;;14.55;9.98;;;15.60;99.90;;;;;;5041182;28;20025;-29
2021/01/03 02:42:26;;;;;;;9.52;8.13;;;15.60;99.90;;;;;;5036731;28;20075;-29
2021/01/03 02:44:53;;;;;;;11.00;8.13;;;15.60;99.90;;;;;;5033762;28;20494;-29
2021/01/03 02:47:24;;;;;;;11.02;8.25;;;15.50;99.90;;;;;;5037603;28;20541;-29
2021/01/03 02:49:50;;;;;;;11.25;8.38;;;15.50;99.90;;;;;;5033722;28;20029;-29
2021/01/03 02:52:23;;;;;;;12.30;9.10;;;15.60;99.90;;;;;;5040589;28;20056;-29
2021/01/03 02:54:51;;;;;;;10.68;8.18;;;15.50;99.90;;;;;;5042294;28;20099;-29
2021/01/03 02:57:17;;;;;;;11.20;7.70;;;15.50;99.90;;;;;;5047394;28;20112;-29
2021/01/03 02:59:43;;;;;;;10.90;8.27;;;15.50;99.90;;;;;;5040098;28;20120;-29
2021/01/03 03:02:09;;;;;;;9.70;7.50;;;15.50;99.90;;;;;;5035541;28;20098;-29
2021/01/03 03:04:35;;;;;;;10.15;7.50;;;15.50;99.90;;;;;;5037254;28;20471;-29
2021/01/03 03:07:00;;;;;;;13.48;7.85;;;15.50;99.90;;;;;;5040526;28;20102;-29
2021/01/03 03:09:26;;;;;;;11.65;7.90;;;15.50;99.90;;;;;;5040979;28;20431;-29
2021/01/03 03:11:52;;;;;;;11.00;7.32;;;15.50;99.90;;;;;;5046859;28;20028;-29
2021/01/03 03:14:18;;;;;;;8.60;7.22;;;15.50;99.90;;;;;;5036463;28;20036;-29
2021/01/03 03:16:44;;;;;;;8.70;6.50;;;15.50;99.90;;;;;;5038719;28;20094;-29
2021/01/03 03:19:10;;;;;;;8.82;6.35;;;15.50;99.90;;;;;;5047617;28;20051;-29
2021/01/03 03:21:36;;;;;;;10.18;6.80;;;15.50;99.90;;;;;;5038945;28;20771;-29
2021/01/03 03:24:01;;;;;;;8.48;6.10;;;15.50;99.90;;;;;;5043265;28;20021;-29
2021/01/03 03:26:27;;;;;;;8.82;6.13;;;15.40;99.90;;;;;;5040428;28;20129;-29
2021/01/03 03:28:53;;;;;;;10.82;6.50;;;15.40;99.90;;;;;;5037258;28;20049;-29
2021/01/03 03:31:26;;;;;;;8.25;6.55;;;15.40;99.90;;;;;;5044222;28;20559;-29
2021/01/03 03:33:52;;;;;;;9.00;5.80;;;15.40;99.90;;;;;;5038164;28;20064;-29
2021/01/03 03:36:18;;;;;;;7.57;5.93;;;15.40;99.90;;;;;;5038540;28;20045;-29
2021/01/03 03:38:43;;;;;;;7.60;5.10;;;15.40;99.90;;;;;;5039341;28;20025;-29
2021/01/03 03:41:15;;;;;;;6.82;5.40;;;15.40;99.90;;;;;;5042975;28;20112;-29
2021/01/03 03:43:42;;;;;;;7.03;5.10;;;15.40;99.90;;;;;;5042976;28;20048;-29
2021/01/03 03:46:08;;;;;;;7.47;5.07;;;15.40;99.90;;;;;;5041959;28;20033;-29
2021/01/03 03:48:34;;;;;;;8.43;5.70;;;15.40;99.90;;;;;;5039123;28;20495;-29
2021/01/03 03:51:00;;;;;;;8.18;5.78;;;15.40;99.90;;;;;;5040282;28;20113;-29
2021/01/03 03:53:26;;;;;;;7.13;5.47;;;15.40;99.90;;;;;;5037560;28;20060;-29
2021/01/03 03:55:53;;;;;;;6.40;5.45;;;15.40;99.90;;;;;;5040078;28;20098;-29
2021/01/03 03:58:19;;;;;;;6.27;4.27;;;15.40;99.90;;;;;;5038458;28;20033;-29
2021/01/03 04:00:45;;;;;;;5.60;4.70;;;15.40;99.90;;;;;;5035204;28;20025;-29
2021/01/03 04:03:11;;;;;;;6.18;4.68;;;15.30;99.90;;;;;;5035241;28;20028;-29
2021/01/03 04:05:36;;;;;;;6.28;4.30;;;15.30;99.90;;;;;;5036837;28;20025;-29
2021/01/03 04:08:02;;;;;;;6.75;4.45;;;15.40;99.90;;;;;;5040507;28;20033;-29
2021/01/03 04:10:30;;;;;;;5.60;4.32;;;15.40;99.90;;;;;;5036883;28;20099;-29
2021/01/03 04:12:56;;;;;;;6.78;4.63;;;15.30;99.90;;;;;;5033249;28;20033;-29
2021/01/03 04:15:21;;;;;;;4.88;3.83;;;15.40;99.90;;;;;;5039294;28;20086;-29
2021/01/03 04:17:48;;;;;;;5.97;4.22;;;15.40;99.90;;;;;;5040926;28;20104;-29
2021/01/03 04:20:17;;;;;;;5.40;3.97;;;15.30;99.90;;;;;;5035516;28;20021;-29
2021/01/03 04:22:44;;;;;;;5.28;3.67;;;15.30;99.90;;;;;;5038388;28;20032;-29
2021/01/03 04:25:12;;;;;;;5.50;4.22;;;15.30;99.90;;;;;;5037554;28;20037;-29
2021/01/03 04:27:37;;;;;;;5.28;4.05;;;15.30;99.90;;;;;;5043630;28;20037;-29
2021/01/03 04:30:06;;;;;;;6.93;4.25;;;15.30;99.90;;;;;;5041825;28;20033;-29
2021/01/03 04:32:31;;;;;;;6.03;3.58;;;15.30;99.90;;;;;;5037108;28;20036;-29
2021/01/03 04:34:57;;;;;;;5.00;3.25;;;15.30;99.90;;;;;;5037039;28;20390;-29
2021/01/03 04:37:23;;;;;;;4.68;3.53;;;15.30;99.90;;;;;;5041006;28;20037;-29
2021/01/03 04:39:49;;;;;;;5.13;3.58;;;15.20;99.90;;;;;;5037412;28;20029;-29
2021/01/03 04:42:20;;;;;;;5.45;3.17;;;15.30;99.90;;;;;;5040241;28;20398;-29
2021/01/03 04:44:51;;;;;;;6.30;3.63;;;15.20;99.90;;;;;;5035775;28;20056;-29
2021/01/03 04:47:24;;;;;;;4.18;3.45;;;15.20;99.90;;;;;;5040755;28;20491;-29
2021/01/03 04:50:06;;;;;;;4.85;3.33;;;15.20;99.90;;;;;;5042361;28;20052;-29
2021/01/03 04:52:47;;;;;;;4.57;3.58;;;15.20;99.90;;;;;;5041822;28;20124;-29
2021/01/03 04:55:19;;;;;;;5.30;3.90;;;15.20;99.90;;;;;;5038661;28;20044;-29
2021/01/03 04:58:17;;;;;;;3.90;3.17;;;15.20;99.90;;;;;;5044111;28;20025;-29
2021/01/03 05:01:07;;;;;;;3.65;2.47;;;15.10;99.90;;;;;;5036464;28;20498;-29
2021/01/03 05:04:00;;;;;;;5.93;2.90;;;15.10;99.90;;;;;;5038535;28;20033;-29
2021/01/03 05:06:28;;;;;;;4.30;2.85;;;15.10;99.90;;;;;;5042458;28;20388;-29
2021/01/03 05:09:02;;;;;;;3.35;2.47;;;15.10;99.90;;;;;;5040707;28;20025;-29
2021/01/03 05:11:56;;;;;;;3.40;2.70;;;15.10;99.90;;;;;;5043661;28;20434;-29
2021/01/03 05:14:28;;;;;;;6.35;2.45;;;15.10;99.90;;;;;;5038820;28;20025;-29
2021/01/03 05:16:55;;;;;;;4.10;2.50;;;15.10;99.90;;;;;;5045686;28;20060;-29
2021/01/03 05:19:22;;;;;;;2.60;2.20;;;15.10;99.90;;;;;;5044140;28;20434;-29
2021/01/03 05:21:53;;;;;;;3.20;2.23;;;15.10;99.90;;;;;;5040623;28;20036;-29
2021/01/03 05:24:22;;;;;;;3.75;2.10;;;15.10;99.90;;;;;;5046392;28;20025;-29
2021/01/03 05:26:48;;;;;;;3.00;2.20;;;15.10;99.90;;;;;;5041315;28;20171;-29
2021/01/03 05:29:25;;;;;;;2.78;2.38;;;15.10;99.90;;;;;;5041249;28;20137;-29
2021/01/03 05:32:05;;;;;;;3.30;2.47;;;15.00;99.90;;;;;;5042430;28;20105;-29
2021/01/03 05:34:36;;;;;;;2.67;2.35;;;15.00;99.90;;;;;;5041079;28;20166;-29
2021/01/03 05:37:19;;;;;;;3.05;2.30;;;15.00;99.90;;;;;;5041509;28;20727;-29
2021/01/03 05:39:45;;;;;;;5.75;2.53;;;15.00;99.90;;;;;;5039638;28;20025;-29
2021/01/03 05:42:21;;;;;;;4.55;2.60;;;15.00;99.90;;;;;;5042935;28;20051;-29
2021/01/03 05:44:54;;;;;;;3.33;2.53;;;15.00;99.90;;;;;;5044863;28;20498;-29
2021/01/03 05:47:27;;;;;;;3.72;2.50;;;15.00;99.90;;;;;;5047070;28;20040;-29
2021/01/03 05:50:17;;;;;;;3.15;2.58;;;15.00;99.90;;;;;;5042890;28;20029;-29
2021/01/03 05:53:12;;;;;;;5.32;2.08;;;15.00;99.90;;;;;;5042753;28;20418;-29
2021/01/03 05:55:49;;;;;;;3.00;2.22;;;15.00;99.90;;;;;;5042855;28;20109;-29
2021/01/03 05:58:36;;;;;;;3.78;2.00;;;15.00;99.90;;;;;;5048345;28;20472;-29
2021/01/03 06:01:22;;;;;;;3.70;2.10;;;15.00;99.90;;;;;;5042864;28;20025;-29
2021/01/03 06:04:09;;;;;;;2.53;1.70;;;15.00;99.90;;;;;;5054454;28;20104;-29
2021/01/03 06:06:47;;;;;;;3.30;2.10;;;15.00;99.90;;;;;;5042435;28;20353;-29
2021/01/03 06:09:14;;;;;;;3.10;2.20;;;15.00;99.90;;;;;;5045388;28;20112;-29
2021/01/03 06:11:40;;;;;;;4.23;2.60;;;15.00;99.90;;;;;;5047704;28;20041;-29
2021/01/03 06:14:07;;;;;;;3.47;2.22;;;15.00;99.90;;;;;;5047160;28;20621;-29
2021/01/03 06:16:46;;;;;;;2.58;2.05;;;15.00;99.90;;;;;;5046730;28;20043;-29
2021/01/03 06:19:34;;;;;;;2.45;2.17;;;15.00;99.90;;;;;;5045008;28;20368;-29
2021/01/03 06:22:26;;;;;;;4.13;2.47;;;15.00;99.90;;;;;;5039146;28;20037;-29
2021/01/03 06:24:54;;;;;;;2.58;2.05;;;15.00;99.90;;;;;;5041674;28;20045;-29
2021/01/03 06:27:29;;;;;;;2.90;2.22;;;15.00;99.90;;;;;;5043268;28;20041;-29
2021/01/03 06:30:13;;;;;;;3.08;1.80;;;15.00;99.90;;;;;;5037678;28;20030;-29
2021/01/03 06:33:16;;;;;;;3.28;2.20;;;15.00;99.90;;;;;;5040765;28;20120;-29
2021/01/03 06:35:49;;;;;;;4.15;2.75;;;15.00;99.90;;;;;;5044626;28;20032;-30
2021/01/03 06:38:26;;;;;;;1.95;1.83;;;15.00;99.90;;;;;;5036209;28;20044;-29
2021/01/03 06:40:58;;;;;;;2.97;2.10;;;15.00;99.90;;;;;;5035395;28;20017;-29
2021/01/03 06:43:48;;;;;;;2.60;1.70;;;15.00;99.90;;;;;;5044205;28;20124;-29
2021/01/03 06:46:51;;;;;;;2.92;1.60;;;14.90;99.90;;;;;;5042304;28;20352;-29
2021/01/03 06:49:58;;;;;;;3.80;1.92;;;14.90;99.90;;;;;;5039266;28;20483;-29
2021/01/03 06:52:45;;;;;;;3.22;2.00;;;15.00;99.90;;;;;;5042787;28;20391;-29
2021/01/03 06:55:29;;;;;;;2.95;2.05;;;15.00;99.90;;;;;;5036224;28;20037;-30
2021/01/03 06:57:55;;;;;;;2.75;1.60;;;14.90;99.90;;;;;;5040046;28;20053;-30
2021/01/03 07:00:39;;;;;;;3.17;2.03;;;14.90;99.90;;;;;;5037386;28;20517;-30
2021/01/03 07:03:13;;;;;;;3.75;1.55;;;14.90;99.90;;;;;;5038789;28;20426;-29
2021/01/03 07:06:08;;;;;;;2.08;1.70;;;14.90;99.90;;;;;;5035187;28;20339;-29
2021/01/03 07:08:50;;;;;;;4.20;1.90;;;14.90;99.90;;;;;;5037970;28;20040;-30
2021/01/03 07:11:54;;;;;;;3.20;2.30;;;14.90;99.90;;;;;;5039888;28;20025;-30
2021/01/03 07:14:22;;;;;;;2.10;1.40;;;14.90;99.90;;;;;;5004376;28;20399;-30
2021/01/03 07:16:54;;;;;;;1.90;1.70;;;14.90;99.90;;;;;;5030394;28;20064;-30
2021/01/03 07:19:32;;;;;;;2.20;1.77;;;14.90;99.90;;;;;;5030585;28;20390;-30
2021/01/03 07:22:07;;;;;;;2.67;1.70;;;14.80;99.90;;;;;;5030356;28;20034;-30
2021/01/03 07:24:51;;;;;;;1.83;1.42;;;14.80;99.90;;;;;;5030170;28;20042;-30
2021/01/03 07:27:29;;;;;;;3.47;2.05;;;14.80;99.90;;;;;;5004014;28;20056;-30
2021/01/03 07:29:54;;;;;;;2.80;1.83;;;14.80;99.90;;;;;;5030108;28;20083;-30
2021/01/03 07:32:39;;;;;;;2.05;1.40;;;14.80;99.90;;;;;;5013459;28;20029;-30
2021/01/03 07:35:11;;;;;;;24.17;16.42;;;14.80;99.90;;;;;;5030131;28;20037;-30
2021/01/03 07:37:38;;;;;;;22.92;17.95;;;14.80;99.90;;;;;;5029949;28;20187;-30
2021/01/03 07:40:08;;;;;;;28.60;19.85;;;14.80;99.90;;;;;;5028824;28;20056;-30
2021/01/03 07:42:58;;;;;;;26.77;20.15;;;14.80;99.90;;;;;;5029306;28;20041;-30
2021/01/03 07:45:27;;;;;;;35.13;27.15;;;14.80;99.90;;;;;;5025373;28;20597;-30
2021/01/03 07:47:54;;;;;;;31.77;23.88;;;14.80;99.90;;;;;;5028882;28;20030;-30
2021/01/03 07:50:26;;;;;;;24.50;19.77;;;14.80;99.90;;;;;;5030836;28;20120;-30
2021/01/03 07:52:55;;;;;;;26.00;19.42;;;14.80;99.90;;;;;;5039000;28;20115;-30
2021/01/03 07:55:31;;;;;;;25.30;18.58;;;14.90;99.90;;;;;;5035131;28;20059;-30
2021/01/03 07:58:05;;;;;;;29.00;18.13;;;14.90;99.90;;;;;;5039091;28;20544;-28
2021/01/03 08:00:34;;;;;;;22.83;17.70;;;15.00;99.90;;;;;;5035660;28;20517;-28
2021/01/03 08:03:09;;;;;;;21.90;16.60;;;15.00;99.90;;;;;;5033737;28;20029;-28
2021/01/03 08:05:37;;;;;;;22.20;16.92;;;15.00;99.90;;;;;;5036236;28;20070;-29
2021/01/03 08:08:22;;;;;;;20.10;14.77;;;15.00;99.90;;;;;;5032735;28;20481;-29
2021/01/03 08:10:49;;;;;;;25.85;19.98;;;15.00;99.90;;;;;;5035393;28;20067;-29
2021/01/03 08:13:25;;;;;;;76.65;52.15;;;15.00;99.90;;;;;;5034920;28;20084;-29
2021/01/03 08:15:55;;;;;;;60.97;43.95;;;15.00;99.90;;;;;;5036586;28;20025;-28
2021/01/03 08:18:21;;;;;;;57.95;43.28;;;15.10;99.90;;;;;;5034973;28;20049;-28
2021/01/03 08:20:51;;;;;;;71.10;53.38;;;15.10;99.90;;;;;;5037295;28;20044;-28
2021/01/03 08:23:30;;;;;;;70.72;53.38;;;15.10;99.90;;;;;;5036965;28;20498;-28
2021/01/03 08:26:23;;;;;;;94.07;68.80;;;15.20;99.90;;;;;;5032187;28;20491;-28
2021/01/03 08:28:52;;;;;;;89.15;66.45;;;15.20;99.90;;;;;;5037711;28;20029;-30
2021/01/03 08:31:17;;;;;;;82.80;61.88;;;15.20;99.90;;;;;;5041986;28;20052;-30
2021/01/03 08:33:44;;;;;;;86.03;66.05;;;15.20;99.90;;;;;;5034096;28;20030;-30
2021/01/03 08:36:32;;;;;;;94.75;72.65;;;15.20;99.90;;;;;;5038417;28;20028;-29
2021/01/03 08:39:07;;;;;;;93.10;70.22;;;15.20;99.90;;;;;;5040417;28;20494;-30
2021/01/03 08:41:44;;;;;;;86.90;65.47;;;15.30;99.90;;;;;;5037965;28;20034;-30
2021/01/03 08:44:11;;;;;;;81.78;62.88;;;15.30;99.90;;;;;;5042164;28;20379;-29
2021/01/03 08:46:37;;;;;;;83.83;61.90;;;15.40;99.90;;;;;;5036851;28;20034;-30
2021/01/03 08:49:06;;;;;;;79.00;60.17;;;15.50;99.90;;;;;;5037941;28;20363;-29
2021/01/03 08:51:33;;;;;;;70.35;55.17;;;15.50;99.90;;;;;;5037243;28;20026;-29
2021/01/03 08:54:05;;;;;;;72.10;54.50;;;15.50;99.90;;;;;;5035043;28;20030;-30
2021/01/03 08:56:47;;;;;;;66.45;51.20;;;15.50;99.90;;;;;;5043328;28;20018;-30
2021/01/03 08:59:16;;;;;;;63.63;47.38;;;15.60;99.90;;;;;;5037365;28;20022;-33
2021/01/03 09:01:41;;;;;;;66.22;49.80;;;15.60;99.90;;;;;;5039318;28;20028;-33
2021/01/03 09:04:18;;;;;;;67.53;51.85;;;15.70;99.90;;;;;;5036629;28;20044;-33
2021/01/03 09:06:45;;;;;;;62.80;47.40;;;15.70;99.90;;;;;;5034686;28;20021;-34
2021/01/03 09:09:18;;;;;;;45.35;35.80;;;15.90;99.90;;;;;;5037648;28;20025;-34
2021/01/03 09:12:04;;;;;;;45.55;35.92;;;15.90;99.90;;;;;;5040254;28;20124;-31
2021/01/03 09:14:44;;;;;;;46.58;36.65;;;16.00;99.90;;;;;;5035319;28;20037;-32
2021/01/03 09:17:17;;;;;;;60.60;46.20;;;16.00;99.90;;;;;;5039641;28;20392;-34
2021/01/03 09:20:05;;;;;;;67.32;50.50;;;16.10;99.90;;;;;;5040191;28;20053;-33
2021/01/03 09:22:39;;;;;;;65.75;50.67;;;16.10;99.90;;;;;;5039223;28;20029;-31
2021/01/03 09:25:15;;;;;;;72.30;51.30;;;16.20;99.90;;;;;;5040229;28;20048;-41
2021/01/03 09:27:41;;;;;;;71.55;53.05;;;16.30;99.90;;;;;;5036621;28;20093;-41
2021/01/03 09:30:09;;;;;;;63.30;49.80;;;16.30;99.90;;;;;;5033877;28;20037;-41
2021/01/03 09:32:36;;;;;;;61.33;45.63;;;16.30;99.90;;;;;;5039382;28;20830;-41
2021/01/03 09:35:11;;;;;;;64.53;49.03;;;16.40;99.90;;;;;;5036534;28;20036;-42
2021/01/03 09:37:40;;;;;;;62.83;48.95;;;16.40;99.90;;;;;;5041193;28;20057;-43
2021/01/03 09:40:40;;;;;;;62.88;49.17;;;16.60;99.90;;;;;;5056678;28;20026;-44
2021/01/03 09:43:32;;;;;;;59.58;46.20;;;16.70;99.90;;;;;;5045415;28;20029;-44
2021/01/03 09:46:19;;;;;;;48.60;38.15;;;16.70;99.90;;;;;;5037814;28;20079;-43
2021/01/03 09:48:46;;;;;;;48.90;40.63;;;16.70;99.90;;;;;;5043195;28;20511;-43
2021/01/03 09:51:23;;;;;;;41.78;32.70;;;16.70;99.90;;;;;;5033988;28;20120;-43
2021/01/03 09:54:03;;;;;;;40.10;30.23;;;16.70;99.90;;;;;;5035679;28;20030;-43
2021/01/03 09:56:36;;;;;;;36.65;29.20;;;16.70;99.90;;;;;;5042197;28;20049;-44
2021/01/03 09:59:28;;;;;;;40.05;30.42;;;16.80;99.90;;;;;;5040300;28;20036;-44
2021/01/03 10:02:12;;;;;;;42.70;30.30;;;16.80;99.90;;;;;;5038356;28;20038;-44
2021/01/03 10:04:44;;;;;;;33.03;27.80;;;16.90;99.90;;;;;;5041463;28;20018;-44
2021/01/03 10:07:21;;;;;;;41.75;28.10;;;17.00;99.90;;;;;;5039025;28;20108;-44
2021/01/03 10:09:56;;;;;;;37.15;27.15;;;17.00;99.90;;;;;;5039590;28;20123;-44
2021/01/03 10:12:37;;;;;;;26.90;20.95;;;17.10;99.90;;;;;;5045859;28;20031;-44
2021/01/03 10:15:13;;;;;;;32.95;21.40;;;17.20;99.90;;;;;;5037447;28;20386;-44
2021/01/03 10:17:54;;;;;;;29.23;20.87;;;17.20;99.90;;;;;;5041266;28;20033;-44
2021/01/03 10:20:40;;;;;;;31.05;22.00;;;17.20;99.90;;;;;;5037695;28;20036;-44
2021/01/03 10:23:09;;;;;;;31.77;19.88;;;17.30;99.90;;;;;;5034363;28;20052;-44
2021/01/03 10:25:35;;;;;;;24.08;16.00;;;17.30;99.90;;;;;;5037478;28;20036;-44
2021/01/03 10:28:07;;;;;;;20.05;13.65;;;17.40;99.90;;;;;;5033695;28;20029;-44
2021/01/03 10:30:33;;;;;;;13.43;10.02;;;17.40;99.90;;;;;;5037266;28;20029;-44
2021/01/03 10:33:00;;;;;;;14.63;10.00;;;17.40;99.90;;;;;;5037116;28;20049;-44
2021/01/03 10:35:26;;;;;;;13.05;9.80;;;17.40;99.90;;;;;;5035769;28;20021;-44
2021/01/03 10:37:52;;;;;;;11.73;8.48;;;17.50;99.90;;;;;;5036188;28;20026;-44
2021/01/03 10:40:19;;;;;;;14.45;8.73;;;17.40;99.90;;;;;;5035599;28;20022;-44
2021/01/03 10:42:47;;;;;;;12.02;9.27;;;17.50;99.90;;;;;;5044231;28;20513;-44
2021/01/03 10:45:13;;;;;;;12.82;8.77;;;17.60;99.90;;;;;;5036536;28;20039;-44
2021/01/03 10:47:39;;;;;;;12.80;8.93;;;17.70;99.90;;;;;;5042712;28;20025;-44
2021/01/03 10:50:06;;;;;;;14.68;9.27;;;17.80;99.90;;;;;;5047403;28;20040;-44
2021/01/03 10:52:32;;;;;;;12.30;8.75;;;17.80;99.90;;;;;;5038247;28;20025;-44
2021/01/03 10:54:58;;;;;;;12.55;8.23;;;17.90;99.90;;;;;;5036840;28;20402;-44
2021/01/03 10:57:24;;;;;;;15.60;9.38;;;18.00;99.90;;;;;;5041169;28;20033;-45
2021/01/03 10:59:49;;;;;;;17.98;10.70;;;18.10;99.90;;;;;;5036840;28;20029;-45
2021/01/03 11:02:15;;;;;;;39.92;11.65;;;18.20;99.90;;;;;;5034826;28;20029;-43
2021/01/03 11:04:41;;;;;;;26.23;19.05;;;18.10;99.90;;;;;;5036446;28;20101;-45
2021/01/03 11:07:10;;;;;;;33.47;18.77;;;18.20;99.90;;;;;;5035213;28;20037;-44
2021/01/03 11:09:36;;;;;;;27.40;15.45;;;18.20;99.90;;;;;;5033880;28;20496;-43
2021/01/03 11:12:04;;;;;;;28.17;17.77;;;18.30;99.90;;;;;;5037723;28;20423;-43
2021/01/03 11:14:30;;;;;;;17.40;12.52;;;18.40;99.90;;;;;;5032150;28;20063;-44
2021/01/03 11:16:56;;;;;;;17.40;12.13;;;18.40;99.90;;;;;;5035017;28;20017;-44
2021/01/03 11:19:22;;;;;;;21.73;14.93;;;18.40;99.90;;;;;;5040974;28;20649;-43
2021/01/03 11:21:57;;;;;;;21.55;15.50;;;18.40;99.90;;;;;;5045827;28;20108;-43
2021/01/03 11:24:23;;;;;;;26.75;18.70;;;18.40;99.90;;;;;;5035009;28;20057;-43
2021/01/03 11:26:49;;;;;;;30.05;17.98;;;18.50;99.90;;;;;;5032382;28;20491;-43
2021/01/03 11:29:20;;;;;;;19.23;13.85;;;18.50;99.90;;;;;;5035594;28;20045;-43
2021/01/03 11:31:48;;;;;;;25.95;14.15;;;18.70;99.90;;;;;;5032633;28;20376;-43
2021/01/03 11:34:21;;;;;;;21.05;13.75;;;18.80;99.90;;;;;;5038095;28;20017;-43
2021/01/03 11:36:56;;;;;;;16.20;11.57;;;18.90;99.90;;;;;;5036265;28;20048;-43
2021/01/03 11:39:23;;;;;;;18.42;10.30;;;19.00;99.90;;;;;;5037783;28;20021;-43
2021/01/03 11:41:51;;;;;;;18.77;12.30;;;19.20;99.90;;;;;;5033706;28;20025;-43
2021/01/03 11:44:17;;;;;;;21.38;13.32;;;19.30;99.90;;;;;;5033622;28;20464;-43
2021/01/03 11:46:43;;;;;;;16.02;10.27;;;19.40;99.90;;;;;;5035532;28;20024;-43
2021/01/03 11:49:10;;;;;;;19.85;11.15;;;19.60;99.90;;;;;;5031408;28;20145;-43
2021/01/03 11:51:36;;;;;;;13.18;9.38;;;19.60;99.90;;;;;;5033786;28;20083;-43
2021/01/03 11:54:01;;;;;;;9.45;7.60;;;19.80;99.90;;;;;;5034205;28;20021;-43
2021/01/03 11:56:27;;;;;;;18.58;11.15;;;19.90;99.90;;;;;;5032762;28;20439;-43
2021/01/03 11:58:53;;;;;;;17.13;7.35;;;19.90;99.90;;;;;;5037333;28;20877;-43
2021/01/03 12:01:21;;;;;;;11.70;7.03;;;19.90;99.90;;;;;;5048150;28;20025;-43
2021/01/03 12:03:48;;;;;;;11.27;6.85;;;19.70;99.90;;;;;;5040342;28;20060;-43
2021/01/03 12:06:24;;;;;;;29.00;22.10;;;19.70;99.90;;;;;;5043214;28;20077;-44
2021/01/03 12:08:50;;;;;;;23.05;16.48;;;19.60;99.90;;;;;;5039641;28;20029;-43
2021/01/03 12:11:23;;;;;;;31.40;22.20;;;19.80;99.90;;;;;;5036179;28;20021;-43
2021/01/03 12:13:51;;;;;;;26.80;22.00;;;19.90;99.90;;;;;;5036470;28;20032;-44
2021/01/03 12:16:19;;;;;;;23.13;19.42;;;20.10;99.90;;;;;;5041437;28;20372;-44
2021/01/03 12:18:47;;;;;;;26.85;18.45;;;20.10;99.90;;;;;;5038233;28;20071;-43
2021/01/03 12:21:27;;;;;;;23.35;17.17;;;20.20;99.90;;;;;;5035545;28;20104;-43
2021/01/03 12:23:53;;;;;;;24.50;17.10;;;20.30;99.90;;;;;;5037768;28;20119;-43
2021/01/03 12:26:20;;;;;;;22.48;17.13;;;20.30;99.90;;;;;;5036760;28;20120;-43
2021/01/03 12:28:46;;;;;;;23.42;16.35;;;20.30;99.90;;;;;;5035699;28;20056;-43
2021/01/03 12:31:13;;;;;;;18.70;16.70;;;20.30;99.90;;;;;;5039045;28;20514;-43
2021/01/03 12:33:39;;;;;;;20.50;18.05;;;20.30;99.90;;;;;;5038660;28;20017;-43
2021/01/03 12:36:05;;;;;;;48.53;36.83;;;20.30;99.90;;;;;;5042008;28;20025;-44
2021/01/03 12:38:31;;;;;;;45.97;34.88;;;20.30;99.90;;;;;;5037502;28;20113;-44
2021/01/03 12:40:57;;;;;;;38.05;28.27;;;20.40;99.90;;;;;;5037544;28;20104;-43
2021/01/03 12:43:23;;;;;;;32.95;26.00;;;20.50;99.90;;;;;;5035344;28;20021;-43
2021/01/03 12:45:49;;;;;;;33.35;25.33;;;20.50;99.90;;;;;;5039056;28;20018;-43
2021/01/03 12:48:15;;;;;;;28.63;24.45;;;20.60;99.90;;;;;;5037575;28;20033;-42
2021/01/03 12:50:41;;;;;;;28.92;22.65;;;20.70;99.90;;;;;;5036916;28;20176;-43
2021/01/03 12:53:07;;;;;;;27.92;22.67;;;20.80;99.90;;;;;;5039295;28;20025;-43
2021/01/03 12:55:32;;;;;;;21.33;18.88;;;20.80;99.90;;;;;;5035378;28;20032;-42
2021/01/03 12:57:58;;;;;;;22.70;17.88;;;20.90;99.90;;;;;;5037974;28;20036;-42